Time;durP1;ratioP1;P1;durP2;ratioP2;P2;SDS_P1;SDS_P2;PMS_P1;PMS_P2;Temp;Humidity;BMP_temperature;BMP_pressure;BME280_temperature;BME280_humidity;BME280_pressure;Samples;Min_cycle;Max_cycle;Signal;HPM_P1;HPM_P2
2021/08/29 00:02:17;;;;;;;6.40;3.27;;;;;14.50;101681.00;;;;12869626;22;20176;-82
2021/08/29 00:07:18;;;;;;;7.20;3.20;;;;;14.40;101685.00;;;;12894627;22;20182;-82
2021/08/29 00:12:20;;;;;;;8.73;3.20;;;;;14.30;101686.00;;;;12845049;22;20173;-82
2021/08/29 00:17:21;;;;;;;9.03;3.70;;;;;14.30;101680.00;;;;12868838;22;20627;-81
2021/08/29 00:22:22;;;;;;;8.17;3.60;;;;;14.20;101674.00;;;;12896416;22;20246;-82
2021/08/29 00:27:23;;;;;;;6.97;3.17;;;;;14.20;101676.00;;;;12871185;22;20252;-82
2021/08/29 00:32:25;;;;;;;10.10;3.60;;;;;14.20;101673.00;;;;12846436;22;20258;-81
2021/08/29 00:37:26;;;;;;;6.17;3.53;;;;;14.10;101675.00;;;;12896739;22;20196;-82
2021/08/29 00:42:27;;;;;;;7.23;3.27;;;;;14.00;101671.00;;;;12871187;22;20655;-82
2021/08/29 00:47:31;;;;;;;9.37;3.50;;;;;14.00;101660.00;;;;12871422;22;20605;-82
2021/08/29 00:52:40;;;;;;;9.27;3.50;;;;;13.90;101651.00;;;;12872848;22;20613;-82
2021/08/29 00:57:42;;;;;;;12.70;3.90;;;;;13.80;101643.00;;;;12846971;22;20206;-81
2021/08/29 01:02:47;;;;;;;9.80;3.80;;;;;13.80;101643.00;;;;12898197;22;20176;-81
2021/08/29 01:08:18;;;;;;;13.63;4.80;;;;;13.70;101634.00;;;;12847109;22;20262;-81
2021/08/29 01:13:33;;;;;;;10.60;3.83;;;;;13.70;101634.00;;;;12873506;22;20169;-82
2021/08/29 01:18:40;;;;;;;9.50;4.37;;;;;13.60;101630.00;;;;12871084;22;20285;-82
2021/08/29 01:23:44;;;;;;;8.53;3.97;;;;;13.50;101628.00;;;;12847199;22;20181;-81
2021/08/29 01:28:53;;;;;;;10.57;4.23;;;;;13.40;101608.00;;;;12896925;22;20180;-82
2021/08/29 01:34:01;;;;;;;5.90;3.57;;;;;13.50;101622.00;;;;12872702;22;20201;-81
2021/08/29 01:39:05;;;;;;;10.73;4.30;;;;;13.50;101621.00;;;;12873039;22;20205;-82
2021/08/29 01:44:07;;;;;;;11.97;4.37;;;;;13.60;101627.00;;;;12895857;22;20582;-82
2021/08/29 01:49:11;;;;;;;10.13;4.33;;;;;13.60;101623.00;;;;12872009;22;20189;-82
2021/08/29 01:54:14;;;;;;;10.90;4.20;;;;;13.50;101626.00;;;;12870719;22;20174;-82
2021/08/29 01:59:30;;;;;;;13.17;4.53;;;;;13.50;101623.00;;;;12872220;22;20177;-82
2021/08/29 02:04:32;;;;;;;12.47;4.07;;;;;13.40;101622.00;;;;12870604;23;20209;-82
2021/08/29 02:09:36;;;;;;;8.77;4.17;;;;;13.40;101618.00;;;;12847798;22;20200;-82
2021/08/29 02:14:48;;;;;;;9.87;4.73;;;;;13.30;101626.00;;;;12895985;22;20176;-82
2021/08/29 02:19:50;;;;;;;10.87;5.03;;;;;13.30;101621.00;;;;12870993;22;20204;-82
2021/08/29 02:24:53;;;;;;;9.60;4.60;;;;;13.30;101622.00;;;;12872270;22;20514;-82
2021/08/29 02:29:55;;;;;;;11.23;5.63;;;;;13.40;101621.00;;;;12871363;22;20174;-82
2021/08/29 02:34:56;;;;;;;8.77;4.77;;;;;13.40;101633.00;;;;12847988;22;20271;-82
2021/08/29 02:40:09;;;;;;;14.13;5.10;;;;;13.50;101626.00;;;;12920419;22;20173;-82
2021/08/29 02:45:12;;;;;;;13.33;5.87;;;;;13.60;101624.00;;;;12895016;22;20181;-81
2021/08/29 02:50:14;;;;;;;9.37;4.80;;;;;13.60;101625.00;;;;12870912;22;20173;-81
2021/08/29 02:55:19;;;;;;;10.17;4.87;;;;;13.70;101633.00;;;;12871418;22;20275;-82
2021/08/29 03:00:21;;;;;;;16.07;4.93;;;;;13.70;101626.00;;;;12916625;22;20178;-81
2021/08/29 03:05:28;;;;;;;8.73;4.73;;;;;13.70;101625.00;;;;12896080;22;20166;-82
2021/08/29 03:10:30;;;;;;;11.00;6.23;;;;;13.80;101620.00;;;;12870594;22;20204;-82
2021/08/29 03:15:32;;;;;;;8.43;5.60;;;;;13.80;101619.00;;;;12894890;22;20185;-82
2021/08/29 03:20:43;;;;;;;7.70;5.53;;;;;13.80;101609.00;;;;12894583;22;20185;-82
2021/08/29 03:25:44;;;;;;;15.43;6.00;;;;;13.90;101619.00;;;;12869575;22;20180;-82
2021/08/29 03:30:47;;;;;;;12.77;6.17;;;;;13.90;101616.00;;;;12919588;22;20173;-81
2021/08/29 03:35:51;;;;;;;13.37;6.30;;;;;13.90;101628.00;;;;12869395;22;20192;-82
2021/08/29 03:40:53;;;;;;;11.43;5.93;;;;;13.90;101613.00;;;;12866922;22;20205;-82
2021/08/29 03:45:56;;;;;;;11.57;6.03;;;;;14.00;101618.00;;;;12893436;22;20268;-81
2021/08/29 03:50:57;;;;;;;7.87;5.63;;;;;14.00;101608.00;;;;12869911;22;20510;-81
2021/08/29 03:56:01;;;;;;;11.13;5.87;;;;;14.10;101606.00;;;;12871612;22;20324;-82
2021/08/29 04:01:04;;;;;;;10.77;6.07;;;;;14.10;101612.00;;;;12847486;22;20636;-82
2021/08/29 04:06:08;;;;;;;11.73;5.90;;;;;14.10;101609.00;;;;12870781;22;20165;-82
2021/08/29 04:11:10;;;;;;;9.83;5.57;;;;;14.10;101604.00;;;;12848071;22;20197;-81
2021/08/29 04:16:13;;;;;;;13.93;6.27;;;;;14.10;101604.00;;;;12847446;22;20197;-81
2021/08/29 04:21:24;;;;;;;14.30;5.83;;;;;14.20;101605.00;;;;12895118;22;20197;-81
2021/08/29 04:26:26;;;;;;;13.03;5.57;;;;;14.20;101609.00;;;;12846272;22;20312;-82
2021/08/29 04:31:30;;;;;;;11.67;5.50;;;;;14.30;101614.00;;;;12942186;22;20177;-81
2021/08/29 04:36:38;;;;;;;10.20;4.97;;;;;14.30;101614.00;;;;12872427;22;20194;-81
2021/08/29 04:41:55;;;;;;;10.73;5.87;;;;;14.30;101605.00;;;;12873409;22;20173;-81
2021/08/29 04:46:56;;;;;;;10.47;4.97;;;;;14.40;101607.00;;;;12870306;22;20200;-81
2021/08/29 04:51:59;;;;;;;6.80;5.03;;;;;14.50;101618.00;;;;12870412;22;20839;-81
2021/08/29 04:57:01;;;;;;;8.87;4.50;;;;;14.50;101627.00;;;;12895593;22;20196;-81
2021/08/29 05:02:02;;;;;;;12.20;5.40;;;;;14.60;101621.00;;;;12895007;22;20177;-81
2021/08/29 05:07:05;;;;;;;16.60;5.37;;;;;14.60;101635.00;;;;12870754;22;20173;-81
2021/08/29 05:12:09;;;;;;;10.90;5.33;;;;;14.70;101639.00;;;;12869977;22;20499;-81
2021/08/29 05:17:15;;;;;;;8.07;4.80;;;;;14.70;101638.00;;;;12869749;22;20201;-81
2021/08/29 05:22:25;;;;;;;8.93;4.60;;;;;14.80;101643.00;;;;12869793;22;20740;-81
2021/08/29 05:27:46;;;;;;;8.37;4.10;;;;;14.80;101647.00;;;;12839534;22;20173;-81
2021/08/29 05:32:47;;;;;;;10.30;4.53;;;;;14.90;101643.00;;;;12870360;22;20907;-81
2021/08/29 05:37:49;;;;;;;13.07;4.27;;;;;14.90;101639.00;;;;12870784;22;20194;-81
2021/08/29 05:43:10;;;;;;;7.57;4.50;;;;;15.00;101642.00;;;;12898617;22;20173;-81
2021/08/29 05:48:11;;;;;;;9.67;4.40;;;;;15.10;101639.00;;;;12870489;22;20207;-82
2021/08/29 05:53:12;;;;;;;10.93;4.40;;;;;15.20;101647.00;;;;12870721;22;20614;-82
2021/08/29 05:58:14;;;;;;;8.40;4.37;;;;;15.40;101653.00;;;;12845738;22;20204;-82
2021/08/29 06:03:18;;;;;;;7.33;3.93;;;;;15.50;101655.00;;;;12919841;22;20165;-82
2021/08/29 06:08:32;;;;;;;11.00;4.17;;;;;15.60;101656.00;;;;12851717;22;20264;-82
2021/08/29 06:13:33;;;;;;;9.17;4.50;;;;;15.80;101662.00;;;;12895060;22;20176;-82
2021/08/29 06:18:34;;;;;;;8.43;3.87;;;;;15.90;101658.00;;;;12869249;22;20220;-81
2021/08/29 06:23:36;;;;;;;6.77;4.00;;;;;16.10;101663.00;;;;12870126;22;20180;-82
2021/08/29 06:28:56;;;;;;;6.13;3.77;;;;;16.30;101659.00;;;;12899730;22;20177;-81
2021/08/29 06:34:23;;;;;;;10.40;4.20;;;;;16.40;101666.00;;;;12830596;22;20188;-82
2021/08/29 06:39:24;;;;;;;6.40;4.07;;;;;16.60;101664.00;;;;12895102;22;20216;-82
2021/08/29 06:44:26;;;;;;;8.67;4.00;;;;;16.70;101678.00;;;;12869959;22;20241;-82
2021/08/29 06:49:50;;;;;;;11.70;4.10;;;;;16.90;101667.00;;;;12857893;22;20173;-82
2021/08/29 06:55:14;;;;;;;11.25;3.60;;;;;17.00;101673.00;;;;12899933;22;20204;-82
2021/08/29 07:00:34;;;;;;;6.20;3.70;;;;;17.00;101678.00;;;;12898462;22;20256;-82
2021/08/29 07:05:39;;;;;;;7.32;3.70;;;;;17.10;101669.00;;;;12868846;22;20173;-82
2021/08/29 07:11:07;;;;;;;7.97;4.30;;;;;17.10;101676.00;;;;12895372;22;20256;-81
2021/08/29 07:16:14;;;;;;;6.38;3.45;;;;;17.30;101674.00;;;;12869137;22;20568;-82
2021/08/29 07:21:15;;;;;;;7.15;3.92;;;;;17.40;101672.00;;;;12868670;22;20875;-82
2021/08/29 07:26:35;;;;;;;9.05;4.28;;;;;17.30;101665.00;;;;12897607;22;20544;-81
2021/08/29 07:31:59;;;;;;;9.23;3.83;;;;;17.40;101665.00;;;;12839459;22;20501;-82
2021/08/29 07:37:03;;;;;;;8.35;3.85;;;;;17.50;101664.00;;;;12874982;22;20224;-82
2021/08/29 07:42:04;;;;;;;11.13;3.50;;;;;17.70;101666.00;;;;12875227;22;20169;-82
2021/08/29 07:47:05;;;;;;;7.78;3.08;;;;;17.80;101664.00;;;;12947837;22;20169;-82
2021/08/29 07:52:08;;;;;;;8.30;3.50;;;;;17.90;101664.00;;;;12874744;22;20169;-83
2021/08/29 07:57:21;;;;;;;7.03;2.72;;;;;18.00;101672.00;;;;12902471;22;20196;-83
2021/08/29 08:02:22;;;;;;;11.65;3.85;;;;;18.00;101660.00;;;;12900938;22;20533;-83
2021/08/29 08:07:42;;;;;;;11.93;3.17;;;;;18.30;101667.00;;;;12904092;22;20169;-84
2021/08/29 08:13:03;;;;;;;9.52;3.92;;;;;18.60;101668.00;;;;12904102;22;20179;-83
2021/08/29 08:18:04;;;;;;;7.05;2.95;;;;;18.70;101666.00;;;;12899446;22;20244;-82
2021/08/29 08:23:06;;;;;;;6.75;3.17;;;;;18.90;101670.00;;;;12850830;22;20180;-82
2021/08/29 08:28:23;;;;;;;9.88;3.08;;;;;19.00;101665.00;;;;12899365;22;20169;-82
2021/08/29 08:33:43;;;;;;;8.27;3.63;;;;;19.00;101647.00;;;;12877819;22;20173;-82
2021/08/29 08:38:55;;;;;;;7.63;3.60;;;;;19.10;101653.00;;;;12877369;22;20228;-82
2021/08/29 08:44:17;;;;;;;10.48;3.10;;;;;19.30;101648.00;;;;12863755;22;20177;-82
2021/08/29 08:49:37;;;;;;;10.07;3.58;;;;;19.30;101653.00;;;;12900257;22;20177;-82
2021/08/29 08:55:01;;;;;;;8.13;2.92;;;;;19.70;101648.00;;;;12899500;22;20617;-82
2021/08/29 09:00:34;;;;;;;7.80;3.58;;;;;20.00;101650.00;;;;12797725;22;20636;-81
2021/08/29 09:05:54;;;;;;;9.05;3.08;;;;;20.30;101650.00;;;;12875650;22;20181;-82
2021/08/29 09:10:59;;;;;;;14.70;3.78;;;;;20.20;101657.00;;;;12896931;22;20165;-83
2021/08/29 09:16:15;;;;;;;11.35;3.25;;;;;20.00;101658.00;;;;12869830;22;20856;-82
2021/08/29 09:21:28;;;;;;;7.90;3.30;;;;;20.20;101652.00;;;;12895306;22;20200;-82
2021/08/29 09:26:32;;;;;;;8.55;3.13;;;;;20.30;101650.00;;;;12872022;22;20185;-82
2021/08/29 09:31:51;;;;;;;6.55;3.45;;;;;20.40;101645.00;;;;12873460;22;20219;-83
2021/08/29 09:37:02;;;;;;;7.70;2.42;;;;;20.30;101643.00;;;;12874439;22;20197;-82
2021/08/29 09:42:40;;;;;;;9.43;3.03;;;;;20.40;101654.00;;;;12896851;23;20174;-82
2021/08/29 09:47:49;;;;;;;9.25;2.75;;;;;20.80;101643.00;;;;12848452;22;20169;-82
2021/08/29 09:53:20;;;;;;;8.25;3.08;;;;;21.40;101644.00;;;;12875153;22;20174;-83
2021/08/29 09:58:41;;;;;;;5.40;2.45;;;;;21.50;101628.00;;;;12870055;22;20267;-83
2021/08/29 10:04:18;;;;;;;7.15;2.28;;;;;21.50;101635.00;;;;12864107;22;20188;-83
2021/08/29 10:09:26;;;;;;;5.80;2.40;;;;;21.80;101620.00;;;;12847366;22;20196;-82
2021/08/29 10:14:37;;;;;;;5.18;2.40;;;;;21.80;101624.00;;;;12895207;22;20236;-82
2021/08/29 10:19:57;;;;;;;9.80;2.50;;;;;22.10;101605.00;;;;12874885;22;20185;-82
2021/08/29 10:25:18;;;;;;;6.28;2.70;;;;;21.90;101616.00;;;;12873361;22;20174;-82
2021/08/29 10:30:20;;;;;;;5.88;2.40;;;;;21.70;101615.00;;;;12895235;22;20173;-81
2021/08/29 10:35:45;;;;;;;7.00;2.33;;;;;21.60;101612.00;;;;12871144;22;20689;-82
2021/08/29 10:41:07;;;;;;;9.07;2.92;;;;;21.70;101602.00;;;;12875158;22;20173;-82
2021/08/29 10:46:10;;;;;;;5.25;2.40;;;;;21.50;101596.00;;;;12845378;22;20264;-81
2021/08/29 10:51:32;;;;;;;6.05;2.40;;;;;20.80;101596.00;;;;12858041;22;20174;-82
2021/08/29 10:56:33;;;;;;;5.53;2.47;;;;;19.90;101591.00;;;;12870487;22;20276;-82
2021/08/29 11:01:43;;;;;;;7.05;2.80;;;;;19.50;101583.00;;;;12870345;22;20170;-81
2021/08/29 11:07:03;;;;;;;7.00;3.60;;;;;19.60;101584.00;;;;12872180;22;20505;-81
2021/08/29 11:12:26;;;;;;;5.35;2.97;;;;;19.60;101588.00;;;;12934675;22;20173;-82
2021/08/29 11:17:38;;;;;;;7.00;3.30;;;;;19.80;101590.00;;;;12895836;22;20201;-82
2021/08/29 11:22:47;;;;;;;6.88;3.10;;;;;19.80;101587.00;;;;12897309;22;20173;-82
2021/08/29 11:28:02;;;;;;;9.30;3.17;;;;;19.80;101598.00;;;;12872678;22;20169;-82
2021/08/29 11:33:37;;;;;;;5.85;3.15;;;;;19.30;101598.00;;;;12894735;22;20538;-82
2021/08/29 11:38:50;;;;;;;7.72;3.60;;;;;19.00;101600.00;;;;12872061;22;20236;-82
2021/08/29 11:43:52;;;;;;;7.68;3.00;;;;;19.00;101600.00;;;;12872706;22;20535;-82
2021/08/29 11:49:03;;;;;;;8.48;4.30;;;;;19.00;101593.00;;;;12892253;22;20863;-82
2021/08/29 11:54:09;;;;;;;9.13;2.70;;;;;18.90;101587.00;;;;12897137;22;20170;-81
2021/08/29 11:59:25;;;;;;;8.07;2.83;;;;;18.80;101594.00;;;;12895997;22;20193;-82
2021/08/29 12:04:27;;;;;;;7.93;2.97;;;;;18.60;101592.00;;;;12894563;22;20174;-82
2021/08/29 12:09:47;;;;;;;6.90;3.00;;;;;18.20;101592.00;;;;12873060;22;20640;-82
2021/08/29 12:15:10;;;;;;;5.97;2.72;;;;;17.80;101589.00;;;;12876154;22;20173;-82
2021/08/29 12:20:17;;;;;;;7.57;2.70;;;;;17.30;101592.00;;;;12875992;22;20193;-82
2021/08/29 12:25:37;;;;;;;6.15;2.88;;;;;17.70;101590.00;;;;12900274;22;20197;-80
2021/08/29 12:30:40;;;;;;;12.63;4.00;;;;;17.50;101603.00;;;;12897029;22;20172;-81
2021/08/29 12:35:43;;;;;;;6.95;3.25;;;;;17.50;101593.00;;;;12897951;22;20190;-82
2021/08/29 12:40:48;;;;;;;7.85;3.53;;;;;17.30;101587.00;;;;12872790;22;20508;-82
2021/08/29 12:45:49;;;;;;;10.30;3.58;;;;;17.30;101586.00;;;;12896831;22;20178;-82
2021/08/29 12:50:58;;;;;;;8.27;3.92;;;;;17.10;101576.00;;;;12917666;22;20228;-81
2021/08/29 12:55:59;;;;;;;6.57;3.60;;;;;17.10;101576.00;;;;12871703;22;20197;-81
2021/08/29 13:01:03;;;;;;;5.78;3.85;;;;;17.20;101560.00;;;;12942584;22;20613;-81
2021/08/29 13:06:06;;;;;;;12.85;3.75;;;;;17.10;101556.00;;;;12871795;22;20170;-81
2021/08/29 13:11:10;;;;;;;9.93;3.63;;;;;16.90;101555.00;;;;12897030;22;20177;-82
2021/08/29 13:16:14;;;;;;;6.55;3.22;;;;;17.20;101537.00;;;;12897891;22;20197;-81
2021/08/29 13:21:31;;;;;;;6.78;4.25;;;;;17.20;101539.00;;;;12897614;22;20178;-82
2021/08/29 13:26:33;;;;;;;11.38;4.72;;;;;17.00;101541.00;;;;12891857;22;20169;-83
2021/08/29 13:31:35;;;;;;;9.27;4.00;;;;;17.00;101523.00;;;;12885300;22;20248;-84
2021/08/29 13:36:48;;;;;;;10.47;4.83;;;;;16.90;101519.00;;;;12865054;22;20654;-84
2021/08/29 13:42:14;;;;;;;10.73;4.43;;;;;17.00;101515.00;;;;12861022;22;20197;-83
2021/08/29 13:47:20;;;;;;;9.30;4.00;;;;;17.10;101509.00;;;;12843017;22;20188;-83
2021/08/29 13:52:23;;;;;;;9.80;4.60;;;;;16.90;101509.00;;;;12889828;22;20177;-83
2021/08/29 13:57:24;;;;;;;8.77;3.90;;;;;16.80;101512.00;;;;12863971;22;20194;-84
2021/08/29 14:02:25;;;;;;;7.85;2.90;;;;;16.70;101523.00;;;;12889156;22;20169;-82
2021/08/29 14:07:27;;;;;;;3.78;3.05;;;;;16.70;101505.00;;;;12858905;22;20169;-83
2021/08/29 14:12:28;;;;;;;7.10;3.03;;;;;16.40;101526.00;;;;12887656;22;20192;-84
2021/08/29 14:17:30;;;;;;;7.90;2.63;;;;;16.20;101528.00;;;;12908138;22;20215;-83
2021/08/29 14:22:31;;;;;;;8.33;3.10;;;;;16.10;101529.00;;;;12837040;22;20800;-82
2021/08/29 14:27:32;;;;;;;8.23;3.53;;;;;16.30;101530.00;;;;12859115;22;20177;-83
2021/08/29 14:32:34;;;;;;;6.33;3.27;;;;;16.30;101529.00;;;;12887618;22;20192;-83
2021/08/29 14:37:35;;;;;;;7.30;3.97;;;;;16.40;101529.00;;;;12887098;22;20194;-83
2021/08/29 14:42:36;;;;;;;9.50;3.77;;;;;16.40;101519.00;;;;12866133;22;20497;-83
2021/08/29 14:47:37;;;;;;;6.80;3.03;;;;;16.40;101524.00;;;;12861342;22;21000;-82
2021/08/29 14:52:40;;;;;;;6.90;3.57;;;;;16.40;101522.00;;;;12886337;22;20223;-81
2021/08/29 14:57:41;;;;;;;8.97;2.80;;;;;16.30;101509.00;;;;12861862;22;20189;-82
2021/08/29 15:02:42;;;;;;;8.27;3.43;;;;;16.30;101518.00;;;;12837051;22;20174;-82
2021/08/29 15:07:44;;;;;;;12.20;2.97;;;;;16.30;101510.00;;;;12889200;22;20176;-82
2021/08/29 15:12:45;;;;;;;8.13;3.60;;;;;16.30;101514.00;;;;12864024;22;20268;-81
2021/08/29 15:17:51;;;;;;;11.07;3.07;;;;;16.30;101512.00;;;;12887276;22;20252;-81
2021/08/29 15:22:52;;;;;;;9.10;2.90;;;;;16.30;101516.00;;;;12864087;22;20173;-81
2021/08/29 15:27:54;;;;;;;7.83;2.90;;;;;16.20;101512.00;;;;12863864;22;20201;-81
2021/08/29 15:32:55;;;;;;;11.30;2.80;;;;;16.10;101510.00;;;;12865233;22;20169;-81
2021/08/29 15:37:57;;;;;;;9.10;2.90;;;;;15.90;101489.00;;;;12890355;23;20193;-81
2021/08/29 15:43:03;;;;;;;11.97;4.37;;;;;15.70;101486.00;;;;12863702;22;20185;-81
2021/08/29 15:48:05;;;;;;;11.07;3.40;;;;;15.60;101482.00;;;;12890819;22;20180;-81
2021/08/29 15:53:06;;;;;;;8.10;2.90;;;;;15.50;101465.00;;;;12893299;22;20711;-82
2021/08/29 15:58:08;;;;;;;7.43;2.83;;;;;15.50;101453.00;;;;12892538;22;20197;-82
2021/08/29 16:03:09;;;;;;;11.57;3.70;;;;;15.40;101454.00;;;;12867962;22;20798;-82
2021/08/29 16:08:10;;;;;;;7.97;3.03;;;;;15.50;101454.00;;;;12895263;22;20165;-84
2021/08/29 16:13:12;;;;;;;5.20;2.83;;;;;15.50;101453.00;;;;12843523;22;20174;-82
2021/08/29 16:18:13;;;;;;;9.00;4.13;;;;;15.40;101445.00;;;;12891535;22;20201;-81
2021/08/29 16:23:14;;;;;;;8.73;3.43;;;;;15.40;101447.00;;;;12889372;22;20177;-83
2021/08/29 16:28:15;;;;;;;7.63;3.40;;;;;15.40;101449.00;;;;12842698;22;20177;-83
2021/08/29 16:33:17;;;;;;;8.87;3.90;;;;;15.40;101451.00;;;;12841233;22;20228;-84
2021/08/29 16:38:18;;;;;;;7.73;3.73;;;;;15.40;101455.00;;;;12842214;22;20879;-83
2021/08/29 16:43:19;;;;;;;9.20;3.80;;;;;15.40;101457.00;;;;12866855;22;20189;-84
2021/08/29 16:48:21;;;;;;;5.63;3.47;;;;;15.40;101457.00;;;;12866952;22;20177;-84
2021/08/29 16:53:22;;;;;;;8.43;4.20;;;;;15.40;101458.00;;;;12840530;22;20229;-84
2021/08/29 16:58:23;;;;;;;8.47;3.60;;;;;15.40;101455.00;;;;12842516;22;20460;-84
2021/08/29 17:03:24;;;;;;;4.70;2.80;;;;;15.40;101455.00;;;;12842437;22;20184;-85
2021/08/29 17:08:26;;;;;;;4.57;3.23;;;;;15.40;101452.00;;;;12838822;22;20316;-82
2021/08/29 17:13:27;;;;;;;7.47;3.13;;;;;15.40;101460.00;;;;12878418;22;20570;-84
2021/08/29 17:18:28;;;;;;;5.50;3.50;;;;;15.40;101454.00;;;;12890330;22;20661;-84
2021/08/29 17:23:30;;;;;;;4.27;3.07;;;;;15.40;101459.00;;;;12890421;22;20196;-84
2021/08/29 17:28:33;;;;;;;5.83;3.57;;;;;15.40;101455.00;;;;12869883;22;20166;-84
2021/08/29 17:33:35;;;;;;;8.03;4.23;;;;;15.40;101464.00;;;;12867594;22;20264;-85
2021/08/29 17:38:37;;;;;;;6.57;4.07;;;;;15.40;101458.00;;;;12892032;22;20855;-84
2021/08/29 17:43:40;;;;;;;8.90;4.80;;;;;15.50;101461.00;;;;12869593;22;20181;-85
2021/08/29 17:48:42;;;;;;;9.03;5.20;;;;;15.50;101459.00;;;;12893754;22;20177;-85
2021/08/29 17:53:49;;;;;;;12.70;6.83;;;;;15.50;101465.00;;;;12870606;22;20224;-85
2021/08/29 17:58:51;;;;;;;10.33;6.90;;;;;15.50;101457.00;;;;12868053;22;20641;-85
2021/08/29 18:03:54;;;;;;;12.63;8.17;;;;;15.50;101459.00;;;;12870968;22;20177;-85
2021/08/29 18:08:55;;;;;;;14.10;7.63;;;;;15.50;101464.00;;;;12870371;22;20228;-84
2021/08/29 18:13:56;;;;;;;9.97;7.80;;;;;15.50;101464.00;;;;12868248;22;20560;-84
2021/08/29 18:18:58;;;;;;;9.50;8.50;;;;;15.60;101461.00;;;;12889300;22;20193;-84
2021/08/29 18:24:00;;;;;;;13.73;8.90;;;;;15.60;101459.00;;;;12889831;22;20207;-84
2021/08/29 18:29:02;;;;;;;12.77;9.90;;;;;15.60;101464.00;;;;12893479;22;20228;-85
2021/08/29 18:34:04;;;;;;;12.93;9.60;;;;;15.60;101468.00;;;;12869429;22;20180;-85
2021/08/29 18:39:06;;;;;;;14.80;11.27;;;;;15.60;101466.00;;;;12867613;22;20193;-85
2021/08/29 18:44:07;;;;;;;15.73;12.27;;;;;15.60;101476.00;;;;12844562;22;20224;-85
2021/08/29 18:49:08;;;;;;;17.97;12.40;;;;;15.70;101479.00;;;;12847460;22;20479;-85
2021/08/29 18:54:10;;;;;;;15.63;12.70;;;;;15.70;101483.00;;;;12864086;22;20170;-85
2021/08/29 18:59:15;;;;;;;20.03;13.77;;;;;15.70;101494.00;;;;12865168;22;20197;-85
2021/08/29 19:04:17;;;;;;;17.27;12.83;;;;;15.80;101488.00;;;;12860210;22;20173;-84
2021/08/29 19:09:18;;;;;;;21.00;14.30;;;;;15.80;101494.00;;;;12862085;22;20181;-85
2021/08/29 19:14:19;;;;;;;19.30;15.20;;;;;15.80;101496.00;;;;12854428;23;20172;-84
2021/08/29 19:19:20;;;;;;;18.77;13.80;;;;;15.80;101499.00;;;;12829767;22;20201;-85
2021/08/29 19:24:21;;;;;;;18.10;14.23;;;;;15.90;101494.00;;;;12855411;22;20592;-84
2021/08/29 19:29:23;;;;;;;24.03;15.40;;;;;15.90;101492.00;;;;12854597;22;20178;-85
2021/08/29 19:34:24;;;;;;;20.07;14.90;;;;;15.90;101496.00;;;;12855949;22;20570;-85
2021/08/29 19:39:25;;;;;;;25.37;16.93;;;;;15.90;101495.00;;;;12830144;22;20202;-84
2021/08/29 19:44:26;;;;;;;22.57;16.53;;;;;15.90;101505.00;;;;12830105;22;20487;-85
2021/08/29 19:49:27;;;;;;;25.70;17.47;;;;;15.90;101505.00;;;;12877866;22;20259;-84
2021/08/29 19:54:28;;;;;;;21.37;15.33;;;;;16.00;101504.00;;;;12878952;22;20169;-84
2021/08/29 19:59:30;;;;;;;21.83;16.77;;;;;16.00;101503.00;;;;12854282;22;20189;-84
2021/08/29 20:04:31;;;;;;;26.07;17.77;;;;;16.00;101510.00;;;;12855885;22;20181;-84
2021/08/29 20:09:32;;;;;;;26.13;17.80;;;;;16.10;101503.00;;;;12851920;22;20188;-84
2021/08/29 20:14:34;;;;;;;23.90;14.70;;;;;16.10;101499.00;;;;12852981;22;20239;-84
2021/08/29 20:19:37;;;;;;;23.10;17.20;;;;;16.10;101499.00;;;;12830194;22;20686;-84
2021/08/29 20:24:39;;;;;;;20.15;14.45;;;;;16.20;101495.00;;;;12856153;22;20253;-84
2021/08/29 20:29:41;;;;;;;20.90;14.07;;;;;16.20;101499.00;;;;12877185;22;20244;-85
2021/08/29 20:34:42;;;;;;;22.15;14.60;;;;;16.20;101495.00;;;;12852011;22;20188;-84
2021/08/29 20:39:43;;;;;;;20.97;13.70;;;;;16.20;101503.00;;;;12881115;22;20259;-84
2021/08/29 20:44:44;;;;;;;22.40;15.40;;;;;16.20;101502.00;;;;12856221;22;20170;-84
2021/08/29 20:49:45;;;;;;;17.87;14.13;;;;;16.30;101492.00;;;;12856496;22;20177;-84
2021/08/29 20:54:46;;;;;;;22.80;15.40;;;;;16.30;101499.00;;;;12855629;22;20177;-84
2021/08/29 20:59:47;;;;;;;20.60;15.17;;;;;16.30;101488.00;;;;12854116;22;20814;-84
2021/08/29 21:04:49;;;;;;;25.17;15.70;;;;;16.30;101496.00;;;;12858003;22;20178;-84
2021/08/29 21:09:50;;;;;;;25.03;17.13;;;;;16.30;101499.00;;;;12856428;22;20549;-84
2021/08/29 21:14:51;;;;;;;20.17;14.73;;;;;16.30;101497.00;;;;12853897;22;20184;-84
2021/08/29 21:19:52;;;;;;;19.43;14.00;;;;;16.30;101501.00;;;;12851340;22;20197;-83
2021/08/29 21:24:53;;;;;;;19.77;13.90;;;;;16.30;101495.00;;;;12877958;22;20223;-84
2021/08/29 21:29:54;;;;;;;15.90;12.77;;;;;16.30;101497.00;;;;12853342;22;20170;-83
2021/08/29 21:34:56;;;;;;;18.90;13.07;;;;;16.40;101496.00;;;;12854417;22;20672;-83
2021/08/29 21:39:57;;;;;;;16.60;12.23;;;;;16.40;101512.00;;;;12878064;22;20271;-83
2021/08/29 21:44:58;;;;;;;22.27;13.13;;;;;16.40;101499.00;;;;12854158;22;20169;-83
2021/08/29 21:50:00;;;;;;;15.55;12.40;;;;;16.40;101505.00;;;;12851362;22;20310;-84
2021/08/29 21:55:03;;;;;;;19.80;11.95;;;;;16.40;101503.00;;;;12853956;22;20224;-84
2021/08/29 22:00:10;;;;;;;17.27;11.17;;;;;16.40;101508.00;;;;12851274;22;20218;-83
2021/08/29 22:05:12;;;;;;;15.13;11.95;;;;;16.40;101511.00;;;;12850277;22;20200;-83
2021/08/29 22:10:13;;;;;;;18.67;12.95;;;;;16.40;101518.00;;;;12858505;22;20941;-82
2021/08/29 22:15:14;;;;;;;19.10;12.10;;;;;16.40;101512.00;;;;12915926;22;20174;-83
2021/08/29 22:20:15;;;;;;;17.92;11.85;;;;;16.40;101521.00;;;;12868235;22;20668;-83
2021/08/29 22:25:16;;;;;;;16.48;11.95;;;;;16.40;101518.00;;;;12867980;22;20216;-82
2021/08/29 22:30:17;;;;;;;15.13;12.40;;;;;16.40;101520.00;;;;12867984;22;20241;-82
2021/08/29 22:35:20;;;;;;;14.38;11.60;;;;;16.40;101512.00;;;;12892958;22;20174;-83
2021/08/29 22:40:21;;;;;;;16.83;12.52;;;;;16.40;101519.00;;;;12843487;22;20180;-82
2021/08/29 22:45:22;;;;;;;16.17;11.63;;;;;16.40;101527.00;;;;12867975;22;20161;-82
2021/08/29 22:50:23;;;;;;;15.57;12.73;;;;;16.40;101519.00;;;;12892852;22;20285;-82
2021/08/29 22:55:25;;;;;;;18.05;13.23;;;;;16.40;101525.00;;;;12864897;22;20184;-83
2021/08/29 23:00:27;;;;;;;16.90;12.68;;;;;16.40;101522.00;;;;12935952;22;20224;-83
2021/08/29 23:05:28;;;;;;;18.53;13.37;;;;;16.40;101525.00;;;;12866168;22;20208;-83
2021/08/29 23:10:29;;;;;;;19.83;13.07;;;;;16.40;101514.00;;;;12868150;22;20688;-83
2021/08/29 23:15:32;;;;;;;16.33;12.23;;;;;16.40;101518.00;;;;12866131;22;20223;-83
2021/08/29 23:20:33;;;;;;;22.30;12.65;;;;;16.40;101521.00;;;;12842394;22;20177;-83
2021/08/29 23:25:34;;;;;;;18.83;12.85;;;;;16.40;101526.00;;;;12867023;22;20652;-83
2021/08/29 23:30:38;;;;;;;15.88;12.57;;;;;16.40;101524.00;;;;12841906;23;20680;-82
2021/08/29 23:35:40;;;;;;;17.48;11.73;;;;;16.40;101524.00;;;;12864750;22;20178;-83
2021/08/29 23:40:41;;;;;;;22.70;12.68;;;;;16.40;101533.00;;;;12841169;22;20178;-82
2021/08/29 23:45:42;;;;;;;17.50;11.95;;;;;16.40;101533.00;;;;12866016;22;20184;-82
2021/08/29 23:50:43;;;;;;;21.73;13.02;;;;;16.40;101542.00;;;;12866527;22;20580;-82
2021/08/29 23:55:44;;;;;;;21.05;13.02;;;;;16.40;101538.00;;;;12867130;22;20195;-83
